createdAt,value
2023-10-01T00:01:03.186Z,8.52
2023-10-01T00:03:30.315Z,7.66
2023-10-01T00:05:59.923Z,8.51
2023-10-01T00:08:27.005Z,8.42
2023-10-01T00:10:54.538Z,8.87
2023-10-01T00:13:21.742Z,8.98
2023-10-01T00:15:49.677Z,8.75
2023-10-01T00:18:16.742Z,8.48
2023-10-01T00:20:43.733Z,8.54
2023-10-01T00:23:13.510Z,8.46
2023-10-01T00:25:40.594Z,8.20
2023-10-01T00:28:07.594Z,8.62
2023-10-01T00:30:35.577Z,8.42
2023-10-01T00:33:05.660Z,8.44
2023-10-01T00:35:32.632Z,8.17
2023-10-01T00:37:59.746Z,8.18
2023-10-01T00:40:29.319Z,8.70
2023-10-01T00:42:56.360Z,8.86
2023-10-01T00:45:23.388Z,8.84
2023-10-01T00:47:51.258Z,8.61
2023-10-01T00:50:21.813Z,8.91
2023-10-01T00:52:50.378Z,8.15
2023-10-01T00:55:18.083Z,9.13
2023-10-01T00:57:48.018Z,8.89
2023-10-01T01:00:17.016Z,8.97
2023-10-01T01:02:46.108Z,8.81
2023-10-01T01:05:15.054Z,8.87
2023-10-01T01:07:42.113Z,9.08
2023-10-01T01:10:10.168Z,8.82
2023-10-01T01:12:37.203Z,9.19
2023-10-01T01:15:08.035Z,9.31
2023-10-01T01:17:34.987Z,8.78
2023-10-01T01:20:02.006Z,9.08
2023-10-01T01:22:31.578Z,8.69
2023-10-01T01:24:59.092Z,8.57
2023-10-01T01:27:26.059Z,8.76
2023-10-01T01:29:52.998Z,9.26
2023-10-01T01:32:19.970Z,9.24
2023-10-01T01:34:47.378Z,9.25
2023-10-01T01:37:14.466Z,8.91
2023-10-01T01:39:49.829Z,9.36
2023-10-01T01:42:17.084Z,10.21
2023-10-01T01:44:44.007Z,9.79
2023-10-01T01:47:11.188Z,9.98
2023-10-01T01:49:38.170Z,9.66
2023-10-01T01:52:05.635Z,8.98
2023-10-01T01:54:34.198Z,9.54
2023-10-01T01:57:04.091Z,9.56
2023-10-01T01:59:31.372Z,9.23
2023-10-01T02:01:58.783Z,9.07
2023-10-01T02:04:26.345Z,9.30
2023-10-01T02:06:53.369Z,10.09
2023-10-01T02:09:20.581Z,9.80
2023-10-01T02:11:51.252Z,10.05
2023-10-01T02:14:20.806Z,9.60
2023-10-01T02:16:47.741Z,9.68
2023-10-01T02:19:14.863Z,9.65
2023-10-01T02:21:42.551Z,9.57
2023-10-01T02:24:09.844Z,9.53
2023-10-01T02:26:36.829Z,9.43
2023-10-01T02:29:03.819Z,9.44
2023-10-01T02:31:33.578Z,9.38
2023-10-01T02:34:00.665Z,9.81
2023-10-01T02:36:27.711Z,10.07
2023-10-01T02:38:54.678Z,10.74
2023-10-01T02:41:22.987Z,10.18
2023-10-01T02:43:49.894Z,9.89
2023-10-01T02:46:17.173Z,9.63
2023-10-01T02:48:47.025Z,10.00
2023-10-01T02:51:13.974Z,9.90
2023-10-01T02:53:41.569Z,10.18
2023-10-01T02:56:08.538Z,10.18
2023-10-01T02:58:35.571Z,9.78
2023-10-01T03:01:04.953Z,9.47
2023-10-01T03:03:32.022Z,9.44
2023-10-01T03:06:01.940Z,9.40
2023-10-01T03:08:28.964Z,8.99
2023-10-01T03:10:55.999Z,9.48
2023-10-01T03:13:23.098Z,9.23
2023-10-01T03:15:50.149Z,8.98
2023-10-01T03:18:17.163Z,8.98
2023-10-01T03:20:44.172Z,8.67
2023-10-01T03:23:16.372Z,8.71
2023-10-01T03:25:43.329Z,8.33
2023-10-01T03:28:11.465Z,8.73
2023-10-01T03:30:41.298Z,8.83
2023-10-01T03:33:08.447Z,8.52
2023-10-01T03:35:35.444Z,8.76
2023-10-01T03:38:02.637Z,8.39
2023-10-01T03:40:32.245Z,8.82
2023-10-01T03:42:59.275Z,8.31
2023-10-01T03:45:26.376Z,8.84
2023-10-01T03:47:53.456Z,8.58
2023-10-01T03:50:20.414Z,8.76
2023-10-01T03:52:47.381Z,8.41
2023-10-01T03:55:14.545Z,8.16
2023-10-01T03:57:44.137Z,8.24
2023-10-01T04:00:11.777Z,7.75
2023-10-01T04:02:38.845Z,7.77
2023-10-01T04:05:06.472Z,8.46
2023-10-01T04:07:33.446Z,7.39
2023-10-01T04:10:00.468Z,7.39
2023-10-01T04:12:27.480Z,7.44
2023-10-01T04:14:57.063Z,7.17
2023-10-01T04:17:24.098Z,7.77
2023-10-01T04:19:51.527Z,7.53
2023-10-01T04:22:18.555Z,6.96
2023-10-01T04:24:45.539Z,6.88
2023-10-01T04:27:12.557Z,7.34
2023-10-01T04:29:39.565Z,7.17
2023-10-01T04:32:09.149Z,7.19
2023-10-01T04:34:36.173Z,7.54
2023-10-01T04:37:03.271Z,6.79
2023-10-01T04:39:30.294Z,7.47
2023-10-01T04:41:57.248Z,7.03
2023-10-01T04:44:24.171Z,6.85
2023-10-01T04:46:51.142Z,7.43
2023-10-01T04:49:32.849Z,7.24
2023-10-01T04:52:02.756Z,7.63
2023-10-01T04:54:29.760Z,7.45
2023-10-01T04:56:56.762Z,7.72
2023-10-01T04:59:23.693Z,7.73
2023-10-01T05:01:50.814Z,7.65
2023-10-01T05:04:20.544Z,7.57
2023-10-01T05:06:47.649Z,7.29
2023-10-01T05:09:14.650Z,7.65
2023-10-01T05:11:41.695Z,7.48
2023-10-01T05:14:08.674Z,7.30
2023-10-01T05:16:35.676Z,7.86
2023-10-01T05:19:02.802Z,7.24
2023-10-01T05:21:32.390Z,7.65
2023-10-01T05:23:59.324Z,7.27
2023-10-01T05:26:26.266Z,7.80
2023-10-01T05:28:53.284Z,7.63
2023-10-01T05:31:20.250Z,7.87
2023-10-01T05:33:47.457Z,7.72
2023-10-01T05:36:15.182Z,7.62
2023-10-01T05:38:44.719Z,6.95
2023-10-01T05:41:12.887Z,7.06
2023-10-01T05:43:41.084Z,7.08
2023-10-01T05:46:08.300Z,7.11
2023-10-01T05:48:35.562Z,7.68
2023-10-01T05:51:02.831Z,7.73
2023-10-01T05:53:29.756Z,7.71
2023-10-01T05:56:05.117Z,7.09
2023-10-01T05:58:32.165Z,6.93
2023-10-01T06:00:59.319Z,7.78
2023-10-01T06:03:27.589Z,7.33
2023-10-01T06:05:55.085Z,7.44
2023-10-01T06:08:22.043Z,7.32
2023-10-01T06:10:49.200Z,7.52
2023-10-01T06:13:18.941Z,7.51
2023-10-01T06:15:46.251Z,7.04
2023-10-01T06:18:13.265Z,6.83
2023-10-01T06:20:40.192Z,7.25
2023-10-01T06:23:07.158Z,7.18
2023-10-01T06:25:34.194Z,7.17
2023-10-01T06:28:01.232Z,6.70
2023-10-01T06:30:30.782Z,7.01
2023-10-01T06:32:57.753Z,6.70
2023-10-01T06:35:24.768Z,7.19
2023-10-01T06:37:52.138Z,6.96
2023-10-01T06:40:19.267Z,7.56
2023-10-01T06:42:46.271Z,7.38
2023-10-01T06:45:13.681Z,7.55
2023-10-01T06:47:43.369Z,7.55
2023-10-01T06:50:10.574Z,7.80
2023-10-01T06:52:38.433Z,8.44
2023-10-01T06:55:06.252Z,7.93
2023-10-01T06:57:33.347Z,8.07
2023-10-01T07:00:00.377Z,8.72
2023-10-01T07:02:29.012Z,8.05
2023-10-01T07:07:29.940Z,9.10
2023-10-01T07:09:57.681Z,8.37
2023-10-01T07:12:25.416Z,9.02
2023-10-01T07:14:53.151Z,8.93
2023-10-01T07:17:22.358Z,8.27
2023-10-01T07:19:49.687Z,7.99
2023-10-01T07:22:19.296Z,8.70
2023-10-01T07:24:46.261Z,8.31
2023-10-01T07:27:13.316Z,8.28
2023-10-01T07:29:41.713Z,8.36
2023-10-01T07:32:10.360Z,8.40
2023-10-01T07:34:37.641Z,9.15
2023-10-01T07:37:04.718Z,8.49
2023-10-01T07:39:38.616Z,9.11
2023-10-01T07:42:06.495Z,8.66
2023-10-01T07:44:34.279Z,8.16
2023-10-01T07:47:01.332Z,8.74
2023-10-01T07:49:28.400Z,8.84
2023-10-01T07:51:55.441Z,8.61
2023-10-01T07:54:22.385Z,9.43
2023-10-01T07:56:51.969Z,9.57
2023-10-01T07:59:19.362Z,9.67
2023-10-01T08:01:46.390Z,9.73
2023-10-01T08:04:14.461Z,10.37
2023-10-01T08:06:41.537Z,9.05
2023-10-01T08:09:09.694Z,8.71
2023-10-01T08:11:36.724Z,9.18
2023-10-01T08:14:06.280Z,9.74
2023-10-01T08:16:33.369Z,9.24
2023-10-01T08:19:00.621Z,9.35
2023-10-01T08:21:27.989Z,9.17
2023-10-01T08:23:54.938Z,9.51
2023-10-01T08:26:22.726Z,9.14
2023-10-01T08:28:49.727Z,8.69
2023-10-01T08:31:19.414Z,8.77
2023-10-01T08:33:46.508Z,9.14
2023-10-01T08:36:13.450Z,8.77
2023-10-01T08:38:41.255Z,8.01
2023-10-01T08:41:08.707Z,8.39
2023-10-01T08:43:36.101Z,8.49
2023-10-01T08:46:14.276Z,8.53
2023-10-01T08:48:44.534Z,8.79
2023-10-01T08:51:11.595Z,9.44
2023-10-01T08:53:39.761Z,8.56
2023-10-01T08:56:07.589Z,8.28
2023-10-01T08:58:37.449Z,8.21
2023-10-01T09:01:04.392Z,7.88
2023-10-01T09:03:32.389Z,8.30
2023-10-01T09:06:03.916Z,8.10
2023-10-01T09:08:32.113Z,8.22
2023-10-01T09:11:00.719Z,8.31
2023-10-01T09:13:28.195Z,8.20
2023-10-01T09:15:55.330Z,7.86
2023-10-01T09:18:24.037Z,7.92
2023-10-01T09:20:51.946Z,8.21
2023-10-01T09:23:21.495Z,7.53
2023-10-01T09:25:57.003Z,8.03
2023-10-01T09:28:35.077Z,7.86
2023-10-01T09:31:03.630Z,9.31
2023-10-01T09:33:30.755Z,8.19
2023-10-01T09:35:57.789Z,8.42
2023-10-01T09:38:27.653Z,8.07
2023-10-01T09:40:56.562Z,8.13
2023-10-01T09:43:24.558Z,8.00
2023-10-01T09:45:53.442Z,7.87
2023-10-01T09:48:22.841Z,7.74
2023-10-01T09:50:50.375Z,7.80
2023-10-01T09:53:28.574Z,8.16
2023-10-01T09:55:57.242Z,7.17
2023-10-01T09:58:25.469Z,8.92
2023-10-01T10:00:56.973Z,7.53
2023-10-01T10:03:25.630Z,8.03
2023-10-01T10:05:53.183Z,7.37
2023-10-01T10:08:20.828Z,7.27
2023-10-01T10:10:53.584Z,7.26
2023-10-01T10:13:37.486Z,7.32
2023-10-01T10:16:05.024Z,7.83
2023-10-01T10:19:05.045Z,7.39
2023-10-01T10:22:01.905Z,8.05
2023-10-01T10:24:29.892Z,7.29
2023-10-01T10:27:00.744Z,6.99
2023-10-01T10:30:09.002Z,7.10
2023-10-01T10:32:37.298Z,6.94
2023-10-01T10:35:22.330Z,6.66
2023-10-01T10:37:49.396Z,7.63
2023-10-01T10:40:16.638Z,6.76
2023-10-01T10:43:12.944Z,6.75
2023-10-01T10:45:40.041Z,7.06
2023-10-01T10:48:11.752Z,7.21
2023-10-01T10:50:40.651Z,7.25
2023-10-01T10:53:07.628Z,6.58
2023-10-01T10:55:34.734Z,6.57
2023-10-01T10:58:08.751Z,7.09
2023-10-01T11:00:35.764Z,6.96
2023-10-01T11:03:02.886Z,6.60
2023-10-01T11:05:30.518Z,6.97
2023-10-01T11:07:58.017Z,6.54
2023-10-01T11:10:25.154Z,6.37
2023-10-01T11:12:52.224Z,6.13
2023-10-01T11:15:22.018Z,6.35
2023-10-01T11:17:49.209Z,6.47
2023-10-01T11:20:16.764Z,7.10
2023-10-01T11:22:43.973Z,7.05
2023-10-01T11:25:11.084Z,7.04
2023-10-01T11:27:38.107Z,7.64
2023-10-01T11:30:08.611Z,6.78
2023-10-01T11:32:54.307Z,7.57
2023-10-01T11:35:24.160Z,6.70
2023-10-01T11:37:51.126Z,6.81
2023-10-01T11:40:18.225Z,7.31
2023-10-01T11:42:45.297Z,6.57
2023-10-01T11:45:22.859Z,6.54
2023-10-01T11:47:50.042Z,6.12
2023-10-01T11:50:19.690Z,6.30
2023-10-01T11:53:03.723Z,6.06
2023-10-01T11:55:30.827Z,6.38
2023-10-01T11:57:57.802Z,6.44
2023-10-01T12:00:24.853Z,6.56
2023-10-01T12:02:51.940Z,6.88
2023-10-01T12:05:21.514Z,6.89
2023-10-01T12:07:48.681Z,6.30
2023-10-01T12:10:16.124Z,6.25
2023-10-01T12:12:43.125Z,6.70
2023-10-01T12:15:11.315Z,6.85
2023-10-01T12:17:38.342Z,6.71
2023-10-01T12:20:06.776Z,6.97
2023-10-01T12:22:36.397Z,7.02
2023-10-01T12:25:03.450Z,7.22
2023-10-01T12:27:32.312Z,6.61
2023-10-01T12:29:59.338Z,7.45
2023-10-01T12:32:26.369Z,7.00
2023-10-01T12:34:53.343Z,6.88
2023-10-01T12:37:20.360Z,6.42
2023-10-01T12:39:49.902Z,6.47
2023-10-01T12:42:16.885Z,6.53
2023-10-01T12:44:43.856Z,6.23
2023-10-01T12:47:10.840Z,6.09
2023-10-01T12:49:38.218Z,5.83
2023-10-01T12:52:07.097Z,5.87
2023-10-01T12:54:34.058Z,6.59
2023-10-01T12:57:05.029Z,6.15
2023-10-01T12:59:33.470Z,6.07
2023-10-01T13:02:00.531Z,6.29
2023-10-01T13:04:27.656Z,6.64
2023-10-01T13:06:55.425Z,5.93
2023-10-01T13:09:22.400Z,5.77
2023-10-01T13:11:49.345Z,5.91
2023-10-01T13:14:27.222Z,5.88
2023-10-01T13:17:05.084Z,5.77
2023-10-01T13:19:32.166Z,6.28
2023-10-01T13:21:59.170Z,5.68
2023-10-01T13:24:26.157Z,5.88
2023-10-01T13:26:53.239Z,5.95
2023-10-01T13:29:22.768Z,5.59
2023-10-01T13:31:49.826Z,6.05
2023-10-01T13:34:16.962Z,5.54
2023-10-01T13:36:43.943Z,5.43
2023-10-01T13:39:10.873Z,5.80
2023-10-01T13:41:38.033Z,5.77
2023-10-01T13:44:05.934Z,5.69
2023-10-01T13:46:35.542Z,5.72
2023-10-01T13:49:02.703Z,5.81
2023-10-01T13:51:29.710Z,5.68
2023-10-01T13:53:56.682Z,5.99
2023-10-01T13:56:23.746Z,5.85
2023-10-01T13:58:50.727Z,5.75
2023-10-01T14:01:17.882Z,6.26
2023-10-01T14:03:47.478Z,5.77
2023-10-01T14:06:14.455Z,6.32
2023-10-01T14:08:41.402Z,5.58
2023-10-01T14:11:08.807Z,5.77
2023-10-01T14:13:36.679Z,5.48
2023-10-01T14:16:04.914Z,5.46
2023-10-01T14:18:36.702Z,5.58
2023-10-01T14:21:07.405Z,5.83
2023-10-01T14:23:34.411Z,5.55
2023-10-01T14:26:01.381Z,5.49
2023-10-01T14:28:28.972Z,5.58
2023-10-01T14:30:58.054Z,5.94
2023-10-01T14:33:25.084Z,6.07
2023-10-01T14:35:52.986Z,5.91
2023-10-01T14:38:26.185Z,6.03
2023-10-01T14:40:53.204Z,6.14
2023-10-01T14:43:20.218Z,5.82
2023-10-01T14:45:47.156Z,5.92
2023-10-01T14:48:14.306Z,6.50
2023-10-01T14:50:41.314Z,6.35
2023-10-01T14:53:09.289Z,5.82
2023-10-01T14:55:38.900Z,6.24
2023-10-01T14:58:05.879Z,6.23
2023-10-01T15:00:32.812Z,6.35
2023-10-01T15:02:59.819Z,6.44
2023-10-01T15:05:26.837Z,6.48
2023-10-01T15:07:53.814Z,6.22
2023-10-01T15:10:20.886Z,6.32
2023-10-01T15:12:53.621Z,6.26
2023-10-01T15:15:47.379Z,6.31
2023-10-01T15:18:20.060Z,6.26
2023-10-01T15:20:47.873Z,6.50
2023-10-01T15:23:14.905Z,6.80
2023-10-01T15:25:41.878Z,6.51
2023-10-01T15:28:11.577Z,6.82
2023-10-01T15:30:38.638Z,6.66
2023-10-01T15:33:06.078Z,7.10
2023-10-01T15:35:33.197Z,7.32
2023-10-01T15:38:00.530Z,6.87
2023-10-01T15:40:27.572Z,6.97
2023-10-01T15:42:54.632Z,6.32
2023-10-01T15:45:24.813Z,6.69
2023-10-01T15:47:51.876Z,6.58
2023-10-01T15:50:20.525Z,6.40
2023-10-01T15:52:49.825Z,6.66
2023-10-01T15:55:18.762Z,6.94
2023-10-01T15:57:48.300Z,6.69
2023-10-01T16:00:15.992Z,6.62
2023-10-01T16:02:45.770Z,6.69
2023-10-01T16:05:12.990Z,6.70
2023-10-01T16:07:40.117Z,6.72
2023-10-01T16:10:08.140Z,6.53
2023-10-01T16:12:37.709Z,7.07
2023-10-01T16:15:06.341Z,7.44
2023-10-01T16:17:34.064Z,7.68
2023-10-01T16:20:04.241Z,7.42
2023-10-01T16:22:31.349Z,6.78
2023-10-01T16:25:00.738Z,7.12
2023-10-01T16:27:29.372Z,7.01
2023-10-01T16:30:01.637Z,7.54
2023-10-01T16:32:28.729Z,7.92
2023-10-01T16:34:55.847Z,7.93
2023-10-01T16:37:25.531Z,7.89
2023-10-01T16:39:52.752Z,7.64
2023-10-01T16:42:19.712Z,8.04
2023-10-01T16:44:46.711Z,7.59
2023-10-01T16:47:13.963Z,7.92
2023-10-01T16:49:42.131Z,8.52
2023-10-01T16:52:09.120Z,8.11
2023-10-01T16:54:40.134Z,8.62
2023-10-01T16:57:11.425Z,8.22
2023-10-01T16:59:49.582Z,8.75
2023-10-01T17:02:16.667Z,8.22
2023-10-01T17:04:43.814Z,8.20
2023-10-01T17:07:11.125Z,7.82
2023-10-01T17:09:40.810Z,8.44
2023-10-01T17:12:07.836Z,8.46
2023-10-01T17:14:34.806Z,8.92
2023-10-01T17:17:02.393Z,8.68
2023-10-01T17:19:30.694Z,7.98
2023-10-01T17:21:58.787Z,8.46
2023-10-01T17:24:26.877Z,8.49
2023-10-01T17:27:02.389Z,8.41
2023-10-01T17:29:30.563Z,8.83
2023-10-01T17:31:59.375Z,9.36
2023-10-01T17:34:31.239Z,9.61
2023-10-01T17:37:02.927Z,9.63
2023-10-01T17:39:30.940Z,9.60
2023-10-01T17:42:02.276Z,9.91
2023-10-01T17:44:30.860Z,10.43
2023-10-01T17:46:59.771Z,10.06
2023-10-01T17:49:28.166Z,10.52
2023-10-01T17:51:56.630Z,9.94
2023-10-01T17:54:24.672Z,10.55
2023-10-01T17:56:52.910Z,10.27
2023-10-01T17:59:22.666Z,10.68
2023-10-01T18:01:50.534Z,11.08
2023-10-01T18:04:20.732Z,11.03
2023-10-01T18:06:49.240Z,11.67
2023-10-01T18:09:16.799Z,11.83
2023-10-01T18:11:43.800Z,12.04
2023-10-01T18:14:10.746Z,12.06
2023-10-01T18:16:40.422Z,12.07
2023-10-01T18:19:07.470Z,12.39
2023-10-01T18:21:35.238Z,12.57
2023-10-01T18:24:02.283Z,12.57
2023-10-01T18:26:29.375Z,12.45
2023-10-01T18:28:56.405Z,12.53
2023-10-01T18:31:23.522Z,12.79
2023-10-01T18:33:53.128Z,13.21
2023-10-01T18:36:20.535Z,13.53
2023-10-01T18:38:48.771Z,13.74
2023-10-01T18:41:15.800Z,13.44
2023-10-01T18:43:42.782Z,13.75
2023-10-01T18:46:09.768Z,13.36
2023-10-01T18:48:36.777Z,13.68
2023-10-01T18:51:06.598Z,13.91
2023-10-01T18:53:34.313Z,13.81
2023-10-01T18:56:01.390Z,13.62
2023-10-01T18:58:28.411Z,13.57
2023-10-01T19:00:55.490Z,13.36
2023-10-01T19:03:22.585Z,13.52
2023-10-01T19:05:49.556Z,13.76
2023-10-01T19:08:19.145Z,14.08
2023-10-01T19:10:46.276Z,13.78
2023-10-01T19:13:13.283Z,13.88
2023-10-01T19:15:40.325Z,14.00
2023-10-01T19:18:07.560Z,14.78
2023-10-01T19:20:34.567Z,14.78
2023-10-01T19:23:01.572Z,14.66
2023-10-01T19:25:31.699Z,15.38
2023-10-01T19:27:59.484Z,15.70
2023-10-01T19:30:27.573Z,15.56
2023-10-01T19:32:55.942Z,15.84
2023-10-01T19:35:23.889Z,15.52
2023-10-01T19:37:52.538Z,15.04
2023-10-01T19:40:21.955Z,14.32
2023-10-01T19:42:53.766Z,14.12
2023-10-01T19:45:22.660Z,13.09
2023-10-01T19:47:50.621Z,13.58
2023-10-01T19:50:33.372Z,13.55
2023-10-01T19:53:05.703Z,13.36
2023-10-01T19:55:32.723Z,13.30
2023-10-01T19:58:02.410Z,13.39
2023-10-01T20:00:29.476Z,13.56
2023-10-01T20:03:02.715Z,13.45
2023-10-01T20:05:29.860Z,12.77
2023-10-01T20:07:58.716Z,12.56
2023-10-01T20:10:25.818Z,12.03
2023-10-01T20:12:52.840Z,12.62
2023-10-01T20:15:22.460Z,12.22
2023-10-01T20:17:49.658Z,12.17
2023-10-01T20:20:21.013Z,12.29
2023-10-01T20:22:48.220Z,12.33
2023-10-01T20:25:15.535Z,12.61
2023-10-01T20:27:42.572Z,12.77
2023-10-01T20:30:10.072Z,12.45
2023-10-01T20:32:39.828Z,13.02
2023-10-01T20:35:08.410Z,12.50
2023-10-01T20:37:35.461Z,12.85
2023-10-01T20:40:02.604Z,12.81
2023-10-01T20:42:29.603Z,12.39
2023-10-01T20:44:56.617Z,13.26
2023-10-01T20:47:24.056Z,13.01
2023-10-01T20:49:54.147Z,13.71
2023-10-01T20:52:25.134Z,13.38
2023-10-01T20:54:52.128Z,13.16
2023-10-01T20:57:19.113Z,13.43
2023-10-01T20:59:46.074Z,13.48
2023-10-01T21:02:21.437Z,13.89
2023-10-01T21:04:50.154Z,14.34
2023-10-01T21:07:21.744Z,14.38
2023-10-01T21:09:49.039Z,14.35
2023-10-01T21:12:17.551Z,14.54
2023-10-01T21:14:45.993Z,14.59
2023-10-01T21:17:14.430Z,13.88
2023-10-01T21:19:43.573Z,13.52
2023-10-01T21:22:14.276Z,14.28
2023-10-01T21:24:45.506Z,13.92
2023-10-01T21:27:14.614Z,13.60
2023-10-01T21:29:43.244Z,13.09
2023-10-01T21:32:12.786Z,13.41
2023-10-01T21:34:39.818Z,13.12
2023-10-01T21:37:07.779Z,13.12
2023-10-01T21:39:36.635Z,12.97
2023-10-01T21:42:06.486Z,12.56
2023-10-01T21:44:36.354Z,12.41
2023-10-01T21:47:05.025Z,12.49
2023-10-01T21:49:32.042Z,11.86
2023-10-01T21:52:06.011Z,11.57
2023-10-01T21:54:33.957Z,11.47
2023-10-01T21:57:01.537Z,11.17
2023-10-01T21:59:35.485Z,10.63
2023-10-01T22:02:02.507Z,10.71
2023-10-01T22:04:30.077Z,10.85
2023-10-01T22:06:57.124Z,10.61
2023-10-01T22:09:25.277Z,10.47
2023-10-01T22:11:54.115Z,10.29
2023-10-01T22:14:23.846Z,10.36
2023-10-01T22:16:53.383Z,10.15
2023-10-01T22:19:21.819Z,10.01
2023-10-01T22:21:52.019Z,10.06
2023-10-01T22:24:19.951Z,9.45
2023-10-01T22:26:48.742Z,9.75
2023-10-01T22:29:16.053Z,9.47
2023-10-01T22:31:43.242Z,9.75
2023-10-01T22:34:13.702Z,9.57
2023-10-01T22:36:41.375Z,9.65
2023-10-01T22:39:08.372Z,9.62
2023-10-01T22:41:35.467Z,9.54
2023-10-01T22:44:02.672Z,9.79
2023-10-01T22:46:30.105Z,9.56
2023-10-01T22:48:57.230Z,9.71
2023-10-01T22:51:26.844Z,9.58
2023-10-01T22:53:54.017Z,8.75
2023-10-01T22:56:20.950Z,9.48
2023-10-01T22:58:47.940Z,9.64
2023-10-01T23:01:14.912Z,9.27
2023-10-01T23:03:41.917Z,8.83
2023-10-01T23:06:08.893Z,8.91
2023-10-01T23:08:38.672Z,9.14
2023-10-01T23:11:05.946Z,8.91
2023-10-01T23:13:33.522Z,9.01
2023-10-01T23:16:00.493Z,9.02
2023-10-01T23:18:27.490Z,9.39
2023-10-01T23:20:56.285Z,9.27
2023-10-01T23:23:25.157Z,8.54
2023-10-01T23:25:55.414Z,9.04
2023-10-01T23:28:22.396Z,9.41
2023-10-01T23:30:49.356Z,9.22
2023-10-01T23:33:16.389Z,8.90
2023-10-01T23:35:57.854Z,9.49
2023-10-01T23:38:31.875Z,9.20
2023-10-01T23:41:01.522Z,9.44
2023-10-01T23:43:29.014Z,9.52
2023-10-01T23:45:56.147Z,9.43
2023-10-01T23:48:23.262Z,9.65
2023-10-01T23:50:50.217Z,9.89
2023-10-01T23:53:17.162Z,9.69
2023-10-01T23:55:44.157Z,10.22
2023-10-01T23:58:14.024Z,10.14
